sensor_id;sensor_type;location;lat;lon;timestamp;P1;durP1;ratioP1;P2;durP2;ratioP2
75135;SDS011;63707;52.212;9.540;2022-10-01T00:02:00;5.80;;;3.63;;
75135;SDS011;63707;52.212;9.540;2022-10-01T00:04:26;6.75;;;3.30;;
75135;SDS011;63707;52.212;9.540;2022-10-01T00:06:52;5.57;;;3.67;;
75135;SDS011;63707;52.212;9.540;2022-10-01T00:09:17;6.60;;;3.38;;
75135;SDS011;63707;52.212;9.540;2022-10-01T00:11:44;5.28;;;3.25;;
75135;SDS011;63707;52.212;9.540;2022-10-01T00:14:09;7.72;;;4.20;;
75135;SDS011;63707;52.212;9.540;2022-10-01T00:16:35;4.22;;;3.00;;
75135;SDS011;63707;52.212;9.540;2022-10-01T00:19:00;5.13;;;3.15;;
75135;SDS011;63707;52.212;9.540;2022-10-01T00:21:27;5.80;;;3.70;;
75135;SDS011;63707;52.212;9.540;2022-10-01T00:23:54;6.75;;;3.45;;
75135;SDS011;63707;52.212;9.540;2022-10-01T00:26:21;8.50;;;3.53;;
75135;SDS011;63707;52.212;9.540;2022-10-01T00:28:53;5.82;;;3.85;;
75135;SDS011;63707;52.212;9.540;2022-10-01T00:31:21;7.35;;;2.90;;
75135;SDS011;63707;52.212;9.540;2022-10-01T00:33:46;7.00;;;3.50;;
75135;SDS011;63707;52.212;9.540;2022-10-01T00:36:12;6.95;;;3.25;;
75135;SDS011;63707;52.212;9.540;2022-10-01T00:38:39;4.40;;;3.05;;
75135;SDS011;63707;52.212;9.540;2022-10-01T00:41:05;6.40;;;3.53;;
75135;SDS011;63707;52.212;9.540;2022-10-01T00:43:32;6.35;;;3.63;;
75135;SDS011;63707;52.212;9.540;2022-10-01T00:46:01;7.78;;;3.63;;
75135;SDS011;63707;52.212;9.540;2022-10-01T00:48:30;7.32;;;3.78;;
75135;SDS011;63707;52.212;9.540;2022-10-01T00:51:00;10.18;;;4.13;;
75135;SDS011;63707;52.212;9.540;2022-10-01T00:53:26;6.07;;;3.33;;
75135;SDS011;63707;52.212;9.540;2022-10-01T00:55:52;6.13;;;3.60;;
75135;SDS011;63707;52.212;9.540;2022-10-01T00:58:20;6.35;;;3.30;;
75135;SDS011;63707;52.212;9.540;2022-10-01T01:00:47;7.40;;;3.78;;
75135;SDS011;63707;52.212;9.540;2022-10-01T01:03:15;7.03;;;3.97;;
75135;SDS011;63707;52.212;9.540;2022-10-01T01:05:41;6.07;;;3.17;;
75135;SDS011;63707;52.212;9.540;2022-10-01T01:08:08;11.23;;;3.97;;
75135;SDS011;63707;52.212;9.540;2022-10-01T01:10:36;6.28;;;3.88;;
75135;SDS011;63707;52.212;9.540;2022-10-01T01:13:15;7.40;;;3.75;;
75135;SDS011;63707;52.212;9.540;2022-10-01T01:15:50;6.38;;;3.83;;
75135;SDS011;63707;52.212;9.540;2022-10-01T01:18:22;7.25;;;3.40;;
75135;SDS011;63707;52.212;9.540;2022-10-01T01:20:59;7.72;;;3.78;;
75135;SDS011;63707;52.212;9.540;2022-10-01T01:23:39;6.57;;;3.40;;
75135;SDS011;63707;52.212;9.540;2022-10-01T01:26:18;7.28;;;3.13;;
75135;SDS011;63707;52.212;9.540;2022-10-01T01:28:55;6.38;;;3.08;;
75135;SDS011;63707;52.212;9.540;2022-10-01T01:31:25;6.32;;;3.47;;
75135;SDS011;63707;52.212;9.540;2022-10-01T01:33:57;5.28;;;2.80;;
75135;SDS011;63707;52.212;9.540;2022-10-01T01:36:25;7.22;;;3.10;;
75135;SDS011;63707;52.212;9.540;2022-10-01T01:38:56;6.47;;;2.90;;
75135;SDS011;63707;52.212;9.540;2022-10-01T01:41:25;5.82;;;3.10;;
75135;SDS011;63707;52.212;9.540;2022-10-01T01:43:58;5.43;;;3.10;;
75135;SDS011;63707;52.212;9.540;2022-10-01T01:46:27;7.43;;;3.22;;
75135;SDS011;63707;52.212;9.540;2022-10-01T01:48:58;5.72;;;2.58;;
75135;SDS011;63707;52.212;9.540;2022-10-01T01:51:28;4.65;;;2.45;;
75135;SDS011;63707;52.212;9.540;2022-10-01T01:53:59;6.38;;;3.05;;
75135;SDS011;63707;52.212;9.540;2022-10-01T01:56:25;7.32;;;2.72;;
75135;SDS011;63707;52.212;9.540;2022-10-01T01:58:50;4.93;;;2.70;;
75135;SDS011;63707;52.212;9.540;2022-10-01T02:01:32;4.40;;;2.55;;
75135;SDS011;63707;52.212;9.540;2022-10-01T02:03:58;7.88;;;2.60;;
75135;SDS011;63707;52.212;9.540;2022-10-01T02:06:26;8.52;;;3.08;;
75135;SDS011;63707;52.212;9.540;2022-10-01T02:08:59;4.28;;;2.60;;
75135;SDS011;63707;52.212;9.540;2022-10-01T02:11:33;4.88;;;2.55;;
75135;SDS011;63707;52.212;9.540;2022-10-01T02:14:06;3.75;;;2.40;;
75135;SDS011;63707;52.212;9.540;2022-10-01T02:16:45;4.93;;;2.72;;
75135;SDS011;63707;52.212;9.540;2022-10-01T02:19:16;7.75;;;2.67;;
75135;SDS011;63707;52.212;9.540;2022-10-01T02:21:49;5.93;;;2.80;;
75135;SDS011;63707;52.212;9.540;2022-10-01T02:24:22;5.15;;;2.60;;
75135;SDS011;63707;52.212;9.540;2022-10-01T02:26:56;3.33;;;2.72;;
75135;SDS011;63707;52.212;9.540;2022-10-01T02:29:24;4.47;;;2.80;;
75135;SDS011;63707;52.212;9.540;2022-10-01T02:31:52;5.95;;;2.88;;
75135;SDS011;63707;52.212;9.540;2022-10-01T02:34:20;6.03;;;2.75;;
75135;SDS011;63707;52.212;9.540;2022-10-01T02:36:48;8.43;;;3.22;;
75135;SDS011;63707;52.212;9.540;2022-10-01T02:39:16;7.40;;;3.08;;
75135;SDS011;63707;52.212;9.540;2022-10-01T02:41:45;6.35;;;2.80;;
75135;SDS011;63707;52.212;9.540;2022-10-01T02:44:14;3.95;;;2.70;;
75135;SDS011;63707;52.212;9.540;2022-10-01T02:46:47;5.55;;;3.05;;
75135;SDS011;63707;52.212;9.540;2022-10-01T02:49:19;6.35;;;3.10;;
75135;SDS011;63707;52.212;9.540;2022-10-01T02:51:47;5.00;;;3.30;;
75135;SDS011;63707;52.212;9.540;2022-10-01T02:54:21;7.90;;;2.88;;
75135;SDS011;63707;52.212;9.540;2022-10-01T02:56:51;3.80;;;2.75;;
75135;SDS011;63707;52.212;9.540;2022-10-01T02:59:36;6.30;;;3.03;;
75135;SDS011;63707;52.212;9.540;2022-10-01T03:02:01;4.53;;;2.80;;
75135;SDS011;63707;52.212;9.540;2022-10-01T03:04:28;5.30;;;2.50;;
75135;SDS011;63707;52.212;9.540;2022-10-01T03:06:54;4.97;;;2.92;;
75135;SDS011;63707;52.212;9.540;2022-10-01T03:09:19;6.63;;;2.75;;
75135;SDS011;63707;52.212;9.540;2022-10-01T03:11:45;4.07;;;2.70;;
75135;SDS011;63707;52.212;9.540;2022-10-01T03:14:11;6.53;;;3.22;;
75135;SDS011;63707;52.212;9.540;2022-10-01T03:16:36;5.57;;;2.80;;
75135;SDS011;63707;52.212;9.540;2022-10-01T03:19:02;5.18;;;2.83;;
75135;SDS011;63707;52.212;9.540;2022-10-01T03:21:29;5.50;;;3.03;;
75135;SDS011;63707;52.212;9.540;2022-10-01T03:23:54;7.22;;;2.97;;
75135;SDS011;63707;52.212;9.540;2022-10-01T03:26:20;6.45;;;2.95;;
75135;SDS011;63707;52.212;9.540;2022-10-01T03:28:45;4.50;;;3.00;;
75135;SDS011;63707;52.212;9.540;2022-10-01T03:31:11;5.60;;;2.53;;
75135;SDS011;63707;52.212;9.540;2022-10-01T03:33:36;4.35;;;2.90;;
75135;SDS011;63707;52.212;9.540;2022-10-01T03:36:02;4.00;;;2.83;;
75135;SDS011;63707;52.212;9.540;2022-10-01T03:38:29;5.78;;;2.70;;
75135;SDS011;63707;52.212;9.540;2022-10-01T03:40:55;5.53;;;2.92;;
75135;SDS011;63707;52.212;9.540;2022-10-01T03:43:21;7.03;;;3.33;;
75135;SDS011;63707;52.212;9.540;2022-10-01T03:45:47;5.25;;;2.80;;
75135;SDS011;63707;52.212;9.540;2022-10-01T03:48:12;6.03;;;2.58;;
75135;SDS011;63707;52.212;9.540;2022-10-01T03:50:38;4.35;;;2.75;;
75135;SDS011;63707;52.212;9.540;2022-10-01T03:53:03;4.68;;;2.90;;
75135;SDS011;63707;52.212;9.540;2022-10-01T03:55:31;5.97;;;2.85;;
75135;SDS011;63707;52.212;9.540;2022-10-01T03:57:57;5.35;;;3.15;;
75135;SDS011;63707;52.212;9.540;2022-10-01T04:00:22;6.15;;;3.28;;
75135;SDS011;63707;52.212;9.540;2022-10-01T04:02:48;5.38;;;2.85;;
75135;SDS011;63707;52.212;9.540;2022-10-01T04:05:13;8.90;;;2.85;;
75135;SDS011;63707;52.212;9.540;2022-10-01T04:07:39;6.65;;;2.80;;
75135;SDS011;63707;52.212;9.540;2022-10-01T04:10:06;6.32;;;3.17;;
75135;SDS011;63707;52.212;9.540;2022-10-01T04:12:33;4.70;;;3.13;;
75135;SDS011;63707;52.212;9.540;2022-10-01T04:14:59;8.70;;;3.60;;
75135;SDS011;63707;52.212;9.540;2022-10-01T04:17:25;5.88;;;3.50;;
75135;SDS011;63707;52.212;9.540;2022-10-01T04:19:50;5.85;;;3.55;;
75135;SDS011;63707;52.212;9.540;2022-10-01T04:22:16;5.80;;;3.63;;
75135;SDS011;63707;52.212;9.540;2022-10-01T04:24:41;8.68;;;4.22;;
75135;SDS011;63707;52.212;9.540;2022-10-01T04:27:07;6.05;;;3.67;;
75135;SDS011;63707;52.212;9.540;2022-10-01T04:29:34;8.52;;;3.80;;
75135;SDS011;63707;52.212;9.540;2022-10-01T04:32:00;7.32;;;3.30;;
75135;SDS011;63707;52.212;9.540;2022-10-01T04:34:27;7.88;;;4.30;;
75135;SDS011;63707;52.212;9.540;2022-10-01T04:37:13;10.57;;;4.47;;
75135;SDS011;63707;52.212;9.540;2022-10-01T04:39:38;9.63;;;4.57;;
75135;SDS011;63707;52.212;9.540;2022-10-01T04:42:04;6.43;;;4.70;;
75135;SDS011;63707;52.212;9.540;2022-10-01T04:44:29;7.65;;;4.53;;
75135;SDS011;63707;52.212;9.540;2022-10-01T04:46:56;10.15;;;5.05;;
75135;SDS011;63707;52.212;9.540;2022-10-01T04:49:22;8.73;;;4.68;;
75135;SDS011;63707;52.212;9.540;2022-10-01T04:51:47;8.73;;;4.60;;
75135;SDS011;63707;52.212;9.540;2022-10-01T04:54:13;7.63;;;4.10;;
75135;SDS011;63707;52.212;9.540;2022-10-01T04:56:38;7.40;;;5.20;;
75135;SDS011;63707;52.212;9.540;2022-10-01T04:59:03;8.30;;;4.63;;
75135;SDS011;63707;52.212;9.540;2022-10-01T05:01:29;8.25;;;4.63;;
75135;SDS011;63707;52.212;9.540;2022-10-01T05:03:57;6.60;;;3.92;;
75135;SDS011;63707;52.212;9.540;2022-10-01T05:06:23;6.82;;;4.55;;
75135;SDS011;63707;52.212;9.540;2022-10-01T05:08:49;10.50;;;5.88;;
75135;SDS011;63707;52.212;9.540;2022-10-01T05:11:16;7.88;;;5.18;;
75135;SDS011;63707;52.212;9.540;2022-10-01T05:13:41;9.57;;;5.47;;
75135;SDS011;63707;52.212;9.540;2022-10-01T05:16:07;11.07;;;5.55;;
75135;SDS011;63707;52.212;9.540;2022-10-01T05:18:32;9.82;;;5.65;;
75135;SDS011;63707;52.212;9.540;2022-10-01T05:21:02;8.85;;;5.80;;
75135;SDS011;63707;52.212;9.540;2022-10-01T05:23:28;9.95;;;5.45;;
75135;SDS011;63707;52.212;9.540;2022-10-01T05:25:54;11.70;;;6.03;;
75135;SDS011;63707;52.212;9.540;2022-10-01T05:28:19;10.00;;;5.97;;
75135;SDS011;63707;52.212;9.540;2022-10-01T05:30:45;11.88;;;6.45;;
75135;SDS011;63707;52.212;9.540;2022-10-01T05:33:10;9.48;;;6.15;;
75135;SDS011;63707;52.212;9.540;2022-10-01T05:35:36;9.00;;;6.28;;
75135;SDS011;63707;52.212;9.540;2022-10-01T05:38:03;11.75;;;6.72;;
75135;SDS011;63707;52.212;9.540;2022-10-01T05:40:28;10.38;;;6.60;;
75135;SDS011;63707;52.212;9.540;2022-10-01T05:42:54;12.20;;;7.28;;
75135;SDS011;63707;52.212;9.540;2022-10-01T05:45:21;11.10;;;7.15;;
75135;SDS011;63707;52.212;9.540;2022-10-01T05:47:48;14.98;;;7.22;;
75135;SDS011;63707;52.212;9.540;2022-10-01T05:50:19;14.80;;;7.35;;
75135;SDS011;63707;52.212;9.540;2022-10-01T05:52:47;13.85;;;8.45;;
75135;SDS011;63707;52.212;9.540;2022-10-01T05:55:16;12.80;;;7.47;;
75135;SDS011;63707;52.212;9.540;2022-10-01T05:57:41;12.55;;;7.78;;
75135;SDS011;63707;52.212;9.540;2022-10-01T06:00:07;14.18;;;8.07;;
75135;SDS011;63707;52.212;9.540;2022-10-01T06:02:33;16.60;;;8.65;;
75135;SDS011;63707;52.212;9.540;2022-10-01T06:04:59;13.43;;;7.95;;
75135;SDS011;63707;52.212;9.540;2022-10-01T06:07:24;12.38;;;7.18;;
75135;SDS011;63707;52.212;9.540;2022-10-01T06:09:50;12.75;;;8.48;;
75135;SDS011;63707;52.212;9.540;2022-10-01T06:12:17;13.60;;;8.30;;
75135;SDS011;63707;52.212;9.540;2022-10-01T06:14:43;14.15;;;7.68;;
75135;SDS011;63707;52.212;9.540;2022-10-01T06:17:12;13.40;;;8.10;;
75135;SDS011;63707;52.212;9.540;2022-10-01T06:19:37;10.88;;;6.65;;
75135;SDS011;63707;52.212;9.540;2022-10-01T06:22:02;10.52;;;7.20;;
75135;SDS011;63707;52.212;9.540;2022-10-01T06:24:28;12.43;;;7.43;;
75135;SDS011;63707;52.212;9.540;2022-10-01T06:26:55;11.05;;;7.35;;
75135;SDS011;63707;52.212;9.540;2022-10-01T06:29:22;14.07;;;8.02;;
75135;SDS011;63707;52.212;9.540;2022-10-01T06:31:48;16.75;;;8.90;;
75135;SDS011;63707;52.212;9.540;2022-10-01T06:34:13;15.30;;;8.32;;
75135;SDS011;63707;52.212;9.540;2022-10-01T06:36:39;11.40;;;7.60;;
75135;SDS011;63707;52.212;9.540;2022-10-01T06:39:04;14.82;;;8.00;;
75135;SDS011;63707;52.212;9.540;2022-10-01T06:41:30;10.13;;;6.85;;
75135;SDS011;63707;52.212;9.540;2022-10-01T06:43:55;12.35;;;7.68;;
75135;SDS011;63707;52.212;9.540;2022-10-01T06:46:22;15.30;;;8.75;;
75135;SDS011;63707;52.212;9.540;2022-10-01T06:48:48;12.05;;;8.20;;
75135;SDS011;63707;52.212;9.540;2022-10-01T06:51:13;11.98;;;7.53;;
75135;SDS011;63707;52.212;9.540;2022-10-01T06:53:39;16.77;;;8.20;;
75135;SDS011;63707;52.212;9.540;2022-10-01T06:56:05;15.50;;;7.78;;
75135;SDS011;63707;52.212;9.540;2022-10-01T06:58:31;9.88;;;6.40;;
75135;SDS011;63707;52.212;9.540;2022-10-01T07:00:58;13.55;;;7.60;;
75135;SDS011;63707;52.212;9.540;2022-10-01T07:03:26;15.13;;;7.80;;
75135;SDS011;63707;52.212;9.540;2022-10-01T07:05:52;10.93;;;7.43;;
75135;SDS011;63707;52.212;9.540;2022-10-01T07:08:18;12.07;;;6.90;;
75135;SDS011;63707;52.212;9.540;2022-10-01T07:10:44;16.00;;;8.43;;
75135;SDS011;63707;52.212;9.540;2022-10-01T07:13:11;8.90;;;6.10;;
75135;SDS011;63707;52.212;9.540;2022-10-01T07:15:38;12.82;;;7.75;;
75135;SDS011;63707;52.212;9.540;2022-10-01T07:18:04;10.48;;;7.22;;
75135;SDS011;63707;52.212;9.540;2022-10-01T07:20:34;10.05;;;6.35;;
75135;SDS011;63707;52.212;9.540;2022-10-01T07:23:03;8.25;;;5.53;;
75135;SDS011;63707;52.212;9.540;2022-10-01T07:25:30;8.13;;;5.22;;
75135;SDS011;63707;52.212;9.540;2022-10-01T07:27:56;8.85;;;5.55;;
75135;SDS011;63707;52.212;9.540;2022-10-01T07:30:23;10.05;;;6.00;;
75135;SDS011;63707;52.212;9.540;2022-10-01T07:32:49;9.00;;;5.65;;
75135;SDS011;63707;52.212;9.540;2022-10-01T07:35:14;8.82;;;4.70;;
75135;SDS011;63707;52.212;9.540;2022-10-01T07:37:41;6.65;;;4.43;;
75135;SDS011;63707;52.212;9.540;2022-10-01T07:40:07;7.75;;;4.65;;
75135;SDS011;63707;52.212;9.540;2022-10-01T07:42:33;7.38;;;4.57;;
75135;SDS011;63707;52.212;9.540;2022-10-01T07:44:59;10.30;;;4.70;;
75135;SDS011;63707;52.212;9.540;2022-10-01T07:47:28;6.63;;;4.25;;
75135;SDS011;63707;52.212;9.540;2022-10-01T07:49:54;6.07;;;3.90;;
75135;SDS011;63707;52.212;9.540;2022-10-01T07:52:19;9.93;;;4.35;;
75135;SDS011;63707;52.212;9.540;2022-10-01T07:54:46;6.55;;;3.95;;
75135;SDS011;63707;52.212;9.540;2022-10-01T07:57:12;8.77;;;4.60;;
75135;SDS011;63707;52.212;9.540;2022-10-01T07:59:38;5.70;;;3.97;;
75135;SDS011;63707;52.212;9.540;2022-10-01T08:02:04;8.85;;;4.80;;
75135;SDS011;63707;52.212;9.540;2022-10-01T08:04:30;5.85;;;4.00;;
75135;SDS011;63707;52.212;9.540;2022-10-01T08:07:14;8.93;;;4.80;;
75135;SDS011;63707;52.212;9.540;2022-10-01T08:09:40;4.68;;;3.55;;
75135;SDS011;63707;52.212;9.540;2022-10-01T08:12:07;6.10;;;4.53;;
75135;SDS011;63707;52.212;9.540;2022-10-01T08:14:32;8.13;;;3.92;;
75135;SDS011;63707;52.212;9.540;2022-10-01T08:16:58;5.45;;;3.75;;
75135;SDS011;63707;52.212;9.540;2022-10-01T08:19:24;7.57;;;4.35;;
75135;SDS011;63707;52.212;9.540;2022-10-01T08:21:50;6.85;;;4.40;;
75135;SDS011;63707;52.212;9.540;2022-10-01T08:24:15;5.15;;;3.28;;
75135;SDS011;63707;52.212;9.540;2022-10-01T08:26:41;6.55;;;3.63;;
75135;SDS011;63707;52.212;9.540;2022-10-01T08:29:09;5.05;;;3.55;;
75135;SDS011;63707;52.212;9.540;2022-10-01T08:31:34;5.97;;;3.83;;
75135;SDS011;63707;52.212;9.540;2022-10-01T08:34:00;4.97;;;3.63;;
75135;SDS011;63707;52.212;9.540;2022-10-01T08:36:25;6.22;;;3.45;;
75135;SDS011;63707;52.212;9.540;2022-10-01T08:38:51;7.95;;;4.03;;
75135;SDS011;63707;52.212;9.540;2022-10-01T08:41:20;5.53;;;3.30;;
75135;SDS011;63707;52.212;9.540;2022-10-01T08:43:54;4.15;;;3.45;;
75135;SDS011;63707;52.212;9.540;2022-10-01T08:46:21;4.82;;;3.60;;
75135;SDS011;63707;52.212;9.540;2022-10-01T08:48:53;6.20;;;3.88;;
75135;SDS011;63707;52.212;9.540;2022-10-01T08:51:26;5.53;;;3.45;;
75135;SDS011;63707;52.212;9.540;2022-10-01T08:53:58;5.10;;;3.20;;
75135;SDS011;63707;52.212;9.540;2022-10-01T08:56:33;4.28;;;3.17;;
75135;SDS011;63707;52.212;9.540;2022-10-01T08:59:02;4.85;;;3.58;;
75135;SDS011;63707;52.212;9.540;2022-10-01T09:01:35;5.03;;;3.90;;
75135;SDS011;63707;52.212;9.540;2022-10-01T09:04:01;4.65;;;3.55;;
75135;SDS011;63707;52.212;9.540;2022-10-01T09:06:28;5.63;;;3.80;;
75135;SDS011;63707;52.212;9.540;2022-10-01T09:08:56;5.72;;;4.60;;
75135;SDS011;63707;52.212;9.540;2022-10-01T09:11:39;5.68;;;3.67;;
75135;SDS011;63707;52.212;9.540;2022-10-01T09:14:18;4.80;;;3.75;;
75135;SDS011;63707;52.212;9.540;2022-10-01T09:17:14;4.45;;;3.33;;
75135;SDS011;63707;52.212;9.540;2022-10-01T09:19:58;9.77;;;6.75;;
75135;SDS011;63707;52.212;9.540;2022-10-01T09:22:32;6.85;;;4.00;;
75135;SDS011;63707;52.212;9.540;2022-10-01T09:25:09;5.63;;;4.47;;
75135;SDS011;63707;52.212;9.540;2022-10-01T09:27:37;4.55;;;3.67;;
75135;SDS011;63707;52.212;9.540;2022-10-01T09:30:04;4.63;;;3.72;;
75135;SDS011;63707;52.212;9.540;2022-10-01T09:32:37;7.90;;;5.18;;
75135;SDS011;63707;52.212;9.540;2022-10-01T09:35:10;9.30;;;7.43;;
75135;SDS011;63707;52.212;9.540;2022-10-01T09:37:46;4.97;;;3.80;;
75135;SDS011;63707;52.212;9.540;2022-10-01T09:40:20;4.40;;;3.40;;
75135;SDS011;63707;52.212;9.540;2022-10-01T09:42:53;7.95;;;4.68;;
75135;SDS011;63707;52.212;9.540;2022-10-01T09:45:23;18.20;;;4.28;;
75135;SDS011;63707;52.212;9.540;2022-10-01T09:47:51;4.47;;;3.42;;
75135;SDS011;63707;52.212;9.540;2022-10-01T09:50:24;3.80;;;2.75;;
75135;SDS011;63707;52.212;9.540;2022-10-01T09:52:58;6.03;;;2.72;;
75135;SDS011;63707;52.212;9.540;2022-10-01T09:55:27;11.25;;;3.70;;
75135;SDS011;63707;52.212;9.540;2022-10-01T09:57:58;6.18;;;3.13;;
75135;SDS011;63707;52.212;9.540;2022-10-01T10:00:27;5.22;;;2.85;;
75135;SDS011;63707;52.212;9.540;2022-10-01T10:02:54;4.70;;;3.25;;
75135;SDS011;63707;52.212;9.540;2022-10-01T10:05:20;4.65;;;3.30;;
75135;SDS011;63707;52.212;9.540;2022-10-01T10:07:48;4.50;;;3.05;;
75135;SDS011;63707;52.212;9.540;2022-10-01T10:10:18;3.38;;;2.67;;
75135;SDS011;63707;52.212;9.540;2022-10-01T10:12:47;3.55;;;2.90;;
75135;SDS011;63707;52.212;9.540;2022-10-01T10:15:19;4.18;;;2.72;;
75135;SDS011;63707;52.212;9.540;2022-10-01T10:17:47;2.95;;;2.53;;
75135;SDS011;63707;52.212;9.540;2022-10-01T10:20:22;5.00;;;2.70;;
75135;SDS011;63707;52.212;9.540;2022-10-01T10:22:51;4.57;;;2.70;;
75135;SDS011;63707;52.212;9.540;2022-10-01T10:25:19;3.70;;;2.75;;
75135;SDS011;63707;52.212;9.540;2022-10-01T10:27:51;3.10;;;2.60;;
75135;SDS011;63707;52.212;9.540;2022-10-01T10:30:19;2.72;;;2.30;;
75135;SDS011;63707;52.212;9.540;2022-10-01T10:32:48;2.78;;;2.42;;
75135;SDS011;63707;52.212;9.540;2022-10-01T10:35:18;5.80;;;2.80;;
75135;SDS011;63707;52.212;9.540;2022-10-01T10:37:50;3.47;;;2.35;;
75135;SDS011;63707;52.212;9.540;2022-10-01T10:40:18;3.45;;;2.80;;
75135;SDS011;63707;52.212;9.540;2022-10-01T10:42:46;2.88;;;2.53;;
75135;SDS011;63707;52.212;9.540;2022-10-01T10:45:15;2.90;;;2.53;;
75135;SDS011;63707;52.212;9.540;2022-10-01T10:47:44;4.05;;;2.50;;
75135;SDS011;63707;52.212;9.540;2022-10-01T10:50:22;3.40;;;2.97;;
75135;SDS011;63707;52.212;9.540;2022-10-01T10:52:54;4.55;;;3.10;;
75135;SDS011;63707;52.212;9.540;2022-10-01T10:55:22;25.95;;;18.30;;
75135;SDS011;63707;52.212;9.540;2022-10-01T10:57:49;10.18;;;8.48;;
75135;SDS011;63707;52.212;9.540;2022-10-01T11:00:15;8.25;;;5.78;;
75135;SDS011;63707;52.212;9.540;2022-10-01T11:02:47;7.30;;;5.45;;
75135;SDS011;63707;52.212;9.540;2022-10-01T11:05:17;4.95;;;4.00;;
75135;SDS011;63707;52.212;9.540;2022-10-01T11:07:46;5.63;;;4.03;;
75135;SDS011;63707;52.212;9.540;2022-10-01T11:10:19;5.85;;;4.13;;
75135;SDS011;63707;52.212;9.540;2022-10-01T11:12:56;8.50;;;4.75;;
75135;SDS011;63707;52.212;9.540;2022-10-01T11:15:40;5.90;;;4.60;;
75135;SDS011;63707;52.212;9.540;2022-10-01T11:18:21;7.70;;;5.35;;
75135;SDS011;63707;52.212;9.540;2022-10-01T11:21:06;7.60;;;5.25;;
75135;SDS011;63707;52.212;9.540;2022-10-01T11:23:54;6.40;;;4.88;;
75135;SDS011;63707;52.212;9.540;2022-10-01T11:26:39;8.57;;;5.93;;
75135;SDS011;63707;52.212;9.540;2022-10-01T11:29:16;7.32;;;4.93;;
75135;SDS011;63707;52.212;9.540;2022-10-01T11:31:57;6.60;;;4.97;;
75135;SDS011;63707;52.212;9.540;2022-10-01T11:34:46;8.30;;;5.55;;
75135;SDS011;63707;52.212;9.540;2022-10-01T11:37:26;7.63;;;5.07;;
75135;SDS011;63707;52.212;9.540;2022-10-01T11:40:03;7.30;;;5.63;;
75135;SDS011;63707;52.212;9.540;2022-10-01T11:42:39;7.65;;;5.72;;
75135;SDS011;63707;52.212;9.540;2022-10-01T11:45:09;7.20;;;5.05;;
75135;SDS011;63707;52.212;9.540;2022-10-01T11:47:45;7.50;;;4.70;;
75135;SDS011;63707;52.212;9.540;2022-10-01T11:50:15;10.68;;;5.18;;
75135;SDS011;63707;52.212;9.540;2022-10-01T11:52:45;7.25;;;5.30;;
75135;SDS011;63707;52.212;9.540;2022-10-01T11:55:19;8.07;;;5.32;;
75135;SDS011;63707;52.212;9.540;2022-10-01T11:58:10;7.00;;;5.10;;
75135;SDS011;63707;52.212;9.540;2022-10-01T12:01:01;8.00;;;4.93;;
75135;SDS011;63707;52.212;9.540;2022-10-01T12:03:34;8.95;;;5.90;;
75135;SDS011;63707;52.212;9.540;2022-10-01T12:06:09;7.93;;;4.45;;
75135;SDS011;63707;52.212;9.540;2022-10-01T12:08:38;11.65;;;4.97;;
75135;SDS011;63707;52.212;9.540;2022-10-01T12:11:15;12.40;;;6.67;;
75135;SDS011;63707;52.212;9.540;2022-10-01T12:13:47;12.45;;;6.57;;
75135;SDS011;63707;52.212;9.540;2022-10-01T12:16:19;9.43;;;6.43;;
75135;SDS011;63707;52.212;9.540;2022-10-01T12:18:53;9.02;;;5.20;;
75135;SDS011;63707;52.212;9.540;2022-10-01T12:21:24;14.25;;;8.15;;
75135;SDS011;63707;52.212;9.540;2022-10-01T12:23:54;12.55;;;6.88;;
75135;SDS011;63707;52.212;9.540;2022-10-01T12:26:28;9.65;;;6.00;;
75135;SDS011;63707;52.212;9.540;2022-10-01T12:29:04;10.00;;;5.13;;
75135;SDS011;63707;52.212;9.540;2022-10-01T12:31:40;11.00;;;5.05;;
75135;SDS011;63707;52.212;9.540;2022-10-01T12:34:11;9.57;;;4.65;;
75135;SDS011;63707;52.212;9.540;2022-10-01T12:36:47;7.38;;;4.80;;
75135;SDS011;63707;52.212;9.540;2022-10-01T12:39:33;8.50;;;4.70;;
75135;SDS011;63707;52.212;9.540;2022-10-01T12:42:24;9.88;;;4.93;;
75135;SDS011;63707;52.212;9.540;2022-10-01T12:45:02;7.97;;;4.72;;
75135;SDS011;63707;52.212;9.540;2022-10-01T12:47:35;10.20;;;5.20;;
75135;SDS011;63707;52.212;9.540;2022-10-01T12:50:13;6.20;;;4.67;;
75135;SDS011;63707;52.212;9.540;2022-10-01T12:52:49;9.52;;;4.95;;
75135;SDS011;63707;52.212;9.540;2022-10-01T12:55:34;9.60;;;4.97;;
75135;SDS011;63707;52.212;9.540;2022-10-01T12:58:14;9.85;;;4.90;;
75135;SDS011;63707;52.212;9.540;2022-10-01T13:00:52;11.93;;;8.40;;
75135;SDS011;63707;52.212;9.540;2022-10-01T13:03:31;10.60;;;5.28;;
75135;SDS011;63707;52.212;9.540;2022-10-01T13:06:30;13.35;;;8.25;;
75135;SDS011;63707;52.212;9.540;2022-10-01T13:09:05;11.75;;;6.53;;
75135;SDS011;63707;52.212;9.540;2022-10-01T13:11:46;6.45;;;4.78;;
75135;SDS011;63707;52.212;9.540;2022-10-01T13:14:28;13.63;;;6.63;;
75135;SDS011;63707;52.212;9.540;2022-10-01T13:16:58;8.50;;;5.28;;
75135;SDS011;63707;52.212;9.540;2022-10-01T13:19:29;9.70;;;5.60;;
75135;SDS011;63707;52.212;9.540;2022-10-01T13:22:05;9.60;;;5.32;;
75135;SDS011;63707;52.212;9.540;2022-10-01T13:24:41;11.50;;;4.82;;
75135;SDS011;63707;52.212;9.540;2022-10-01T13:27:15;10.25;;;5.93;;
75135;SDS011;63707;52.212;9.540;2022-10-01T13:29:48;10.50;;;5.95;;
75135;SDS011;63707;52.212;9.540;2022-10-01T13:32:23;7.15;;;4.57;;
75135;SDS011;63707;52.212;9.540;2022-10-01T13:34:51;10.45;;;4.43;;
75135;SDS011;63707;52.212;9.540;2022-10-01T13:37:29;8.75;;;4.00;;
75135;SDS011;63707;52.212;9.540;2022-10-01T13:39:57;6.10;;;4.00;;
75135;SDS011;63707;52.212;9.540;2022-10-01T13:42:24;10.05;;;4.05;;
75135;SDS011;63707;52.212;9.540;2022-10-01T13:44:54;6.93;;;4.72;;
75135;SDS011;63707;52.212;9.540;2022-10-01T13:47:25;8.32;;;3.60;;
75135;SDS011;63707;52.212;9.540;2022-10-01T13:49:52;7.20;;;3.20;;
75135;SDS011;63707;52.212;9.540;2022-10-01T13:52:20;8.27;;;4.03;;
75135;SDS011;63707;52.212;9.540;2022-10-01T13:54:46;6.85;;;3.00;;
75135;SDS011;63707;52.212;9.540;2022-10-01T13:57:24;5.15;;;3.20;;
75135;SDS011;63707;52.212;9.540;2022-10-01T13:59:58;4.97;;;2.90;;
75135;SDS011;63707;52.212;9.540;2022-10-01T14:02:30;6.78;;;3.38;;
75135;SDS011;63707;52.212;9.540;2022-10-01T14:05:01;2.90;;;1.98;;
75135;SDS011;63707;52.212;9.540;2022-10-01T14:07:38;6.75;;;1.65;;
75135;SDS011;63707;52.212;9.540;2022-10-01T14:10:04;10.80;;;1.77;;
75135;SDS011;63707;52.212;9.540;2022-10-01T14:12:30;2.50;;;1.30;;
75135;SDS011;63707;52.212;9.540;2022-10-01T14:15:17;10.02;;;1.65;;
75135;SDS011;63707;52.212;9.540;2022-10-01T14:18:21;2.70;;;1.00;;
75135;SDS011;63707;52.212;9.540;2022-10-01T14:20:51;3.63;;;1.42;;
75135;SDS011;63707;52.212;9.540;2022-10-01T14:23:24;8.70;;;4.77;;
75135;SDS011;63707;52.212;9.540;2022-10-01T14:25:56;4.75;;;1.30;;
75135;SDS011;63707;52.212;9.540;2022-10-01T14:28:28;3.13;;;1.40;;
75135;SDS011;63707;52.212;9.540;2022-10-01T14:31:06;7.22;;;2.30;;
75135;SDS011;63707;52.212;9.540;2022-10-01T14:33:47;5.82;;;1.65;;
75135;SDS011;63707;52.212;9.540;2022-10-01T14:36:24;2.80;;;1.10;;
75135;SDS011;63707;52.212;9.540;2022-10-01T14:39:03;3.35;;;1.00;;
75135;SDS011;63707;52.212;9.540;2022-10-01T14:41:35;4.07;;;1.20;;
75135;SDS011;63707;52.212;9.540;2022-10-01T14:44:01;2.30;;;1.30;;
75135;SDS011;63707;52.212;9.540;2022-10-01T14:46:43;3.45;;;1.20;;
75135;SDS011;63707;52.212;9.540;2022-10-01T14:49:15;2.15;;;1.13;;
75135;SDS011;63707;52.212;9.540;2022-10-01T14:51:49;4.00;;;1.77;;
75135;SDS011;63707;52.212;9.540;2022-10-01T14:54:18;4.13;;;1.20;;
75135;SDS011;63707;52.212;9.540;2022-10-01T14:56:44;2.75;;;1.00;;
75135;SDS011;63707;52.212;9.540;2022-10-01T14:59:12;1.95;;;0.90;;
75135;SDS011;63707;52.212;9.540;2022-10-01T15:01:53;2.75;;;0.75;;
75135;SDS011;63707;52.212;9.540;2022-10-01T15:04:21;1.70;;;1.05;;